sensor_id;sensor_type;location;lat;lon;timestamp;pressure;altitude;pressure_sealevel;temperature;humidity
34931;BME280;21134;49.646;8.560;2023-02-18T00:01:56;101313.03;;;12.10;95.51
34931;BME280;21134;49.646;8.560;2023-02-18T00:04:24;101320.00;;;12.33;94.70
34931;BME280;21134;49.646;8.560;2023-02-18T00:06:50;101318.28;;;12.32;94.62
34931;BME280;21134;49.646;8.560;2023-02-18T00:09:17;101313.09;;;12.23;95.30
34931;BME280;21134;49.646;8.560;2023-02-18T00:11:43;101319.06;;;12.20;95.23
34931;BME280;21134;49.646;8.560;2023-02-18T00:14:12;101319.03;;;12.14;96.05
34931;BME280;21134;49.646;8.560;2023-02-18T00:16:39;101326.81;;;12.26;94.83
34931;BME280;21134;49.646;8.560;2023-02-18T00:19:07;101330.16;;;12.16;95.43
34931;BME280;21134;49.646;8.560;2023-02-18T00:21:37;101315.66;;;12.20;95.86
34931;BME280;21134;49.646;8.560;2023-02-18T00:24:05;101320.81;;;12.26;95.08
34931;BME280;21134;49.646;8.560;2023-02-18T00:26:32;101317.34;;;12.16;95.21
34931;BME280;21134;49.646;8.560;2023-02-18T00:28:59;101314.84;;;12.28;94.33
34931;BME280;21134;49.646;8.560;2023-02-18T00:31:26;101314.78;;;12.16;95.28
34931;BME280;21134;49.646;8.560;2023-02-18T00:33:54;101316.47;;;12.14;96.02
34931;BME280;21134;49.646;8.560;2023-02-18T00:36:21;101323.31;;;12.17;95.96
34931;BME280;21134;49.646;8.560;2023-02-18T00:38:51;101318.19;;;12.17;95.67
34931;BME280;21134;49.646;8.560;2023-02-18T00:41:19;101319.03;;;12.17;96.02
34931;BME280;21134;49.646;8.560;2023-02-18T00:43:45;101317.41;;;12.31;94.37
34931;BME280;21134;49.646;8.560;2023-02-18T00:46:12;101322.50;;;12.24;95.33
34931;BME280;21134;49.646;8.560;2023-02-18T00:48:39;101313.06;;;12.21;96.05
34931;BME280;21134;49.646;8.560;2023-02-18T00:51:06;101318.19;;;12.14;96.41
34931;BME280;21134;49.646;8.560;2023-02-18T00:53:34;101317.31;;;12.15;96.93
34931;BME280;21134;49.646;8.560;2023-02-18T00:56:02;101312.28;;;12.28;96.88
34931;BME280;21134;49.646;8.560;2023-02-18T00:58:29;101320.69;;;12.07;98.15
34931;BME280;21134;49.646;8.560;2023-02-18T01:00:56;101309.56;;;12.01;98.86
34931;BME280;21134;49.646;8.560;2023-02-18T01:03:22;101314.63;;;11.95;99.56
34931;BME280;21134;49.646;8.560;2023-02-18T01:05:50;101318.13;;;12.09;99.15
34931;BME280;21134;49.646;8.560;2023-02-18T01:08:18;101318.09;;;12.01;98.38
34931;BME280;21134;49.646;8.560;2023-02-18T01:10:47;101326.66;;;12.00;99.30
34931;BME280;21134;49.646;8.560;2023-02-18T01:13:15;101322.38;;;12.01;99.77
34931;BME280;21134;49.646;8.560;2023-02-18T01:15:42;101332.47;;;11.81;100.00
34931;BME280;21134;49.646;8.560;2023-02-18T01:18:10;101330.84;;;11.89;100.00
34931;BME280;21134;49.646;8.560;2023-02-18T01:20:39;101334.06;;;11.70;100.00
34931;BME280;21134;49.646;8.560;2023-02-18T01:23:06;101340.00;;;11.64;100.00
34931;BME280;21134;49.646;8.560;2023-02-18T01:25:33;101336.56;;;11.59;100.00
34931;BME280;21134;49.646;8.560;2023-02-18T01:28:00;101333.16;;;11.61;100.00
34931;BME280;21134;49.646;8.560;2023-02-18T01:30:28;101327.13;;;11.58;100.00
34931;BME280;21134;49.646;8.560;2023-02-18T01:32:55;101323.78;;;11.62;100.00
34931;BME280;21134;49.646;8.560;2023-02-18T01:35:22;101312.69;;;11.66;100.00
34931;BME280;21134;49.646;8.560;2023-02-18T01:37:49;101325.41;;;11.54;100.00
34931;BME280;21134;49.646;8.560;2023-02-18T01:40:20;101324.50;;;11.52;100.00
34931;BME280;21134;49.646;8.560;2023-02-18T01:42:47;101325.34;;;11.46;100.00
34931;BME280;21134;49.646;8.560;2023-02-18T01:45:55;101320.22;;;11.46;100.00
34931;BME280;21134;49.646;8.560;2023-02-18T01:48:26;101319.34;;;11.44;100.00
34931;BME280;21134;49.646;8.560;2023-02-18T01:50:56;101321.03;;;11.44;100.00
34931;BME280;21134;49.646;8.560;2023-02-18T01:53:26;101315.19;;;11.60;100.00
34931;BME280;21134;49.646;8.560;2023-02-18T01:55:55;101309.13;;;11.52;100.00
34931;BME280;21134;49.646;8.560;2023-02-18T01:58:22;101310.06;;;11.60;100.00
34931;BME280;21134;49.646;8.560;2023-02-18T02:00:49;101309.19;;;11.56;100.00
34931;BME280;21134;49.646;8.560;2023-02-18T02:03:17;101308.22;;;11.45;100.00
34931;BME280;21134;49.646;8.560;2023-02-18T02:05:43;101303.06;;;11.36;100.00
34931;BME280;21134;49.646;8.560;2023-02-18T02:08:10;101296.19;;;11.33;100.00
34931;BME280;21134;49.646;8.560;2023-02-18T02:10:45;101284.25;;;11.38;100.00
34931;BME280;21134;49.646;8.560;2023-02-18T02:13:19;101289.50;;;11.51;100.00
34931;BME280;21134;49.646;8.560;2023-02-18T02:15:50;101280.19;;;11.62;100.00
34931;BME280;21134;49.646;8.560;2023-02-18T02:18:46;101279.25;;;11.54;100.00
34931;BME280;21134;49.646;8.560;2023-02-18T02:21:53;101262.19;;;11.53;100.00
34931;BME280;21134;49.646;8.560;2023-02-18T02:24:51;101263.03;;;11.55;100.00
34931;BME280;21134;49.646;8.560;2023-02-18T02:27:23;101262.22;;;11.56;100.00
34931;BME280;21134;49.646;8.560;2023-02-18T02:30:19;101265.69;;;11.66;100.00
34931;BME280;21134;49.646;8.560;2023-02-18T02:36:05;101260.59;;;11.69;97.96
34931;BME280;21134;49.646;8.560;2023-02-18T02:38:38;101252.03;;;11.68;99.30
34931;BME280;21134;49.646;8.560;2023-02-18T02:41:14;101251.97;;;11.59;98.55
34931;BME280;21134;49.646;8.560;2023-02-18T02:43:51;101248.56;;;11.58;99.45
34931;BME280;21134;49.646;8.560;2023-02-18T02:46:26;101246.03;;;11.61;98.11
34931;BME280;21134;49.646;8.560;2023-02-18T02:48:58;101245.97;;;11.57;98.86
34931;BME280;21134;49.646;8.560;2023-02-18T02:51:32;101245.09;;;11.55;98.45
34931;BME280;21134;49.646;8.560;2023-02-18T02:54:11;101241.72;;;11.60;98.27
34931;BME280;21134;49.646;8.560;2023-02-18T02:56:38;101238.34;;;11.68;97.21
34931;BME280;21134;49.646;8.560;2023-02-18T02:59:09;101243.47;;;11.68;97.79
34931;BME280;21134;49.646;8.560;2023-02-18T03:01:50;101238.34;;;11.61;97.24
34931;BME280;21134;49.646;8.560;2023-02-18T03:04:35;101245.19;;;11.66;97.87
34931;BME280;21134;49.646;8.560;2023-02-18T03:07:13;101235.88;;;11.83;97.04
34931;BME280;21134;49.646;8.560;2023-02-18T03:09:58;101233.28;;;11.80;96.65
34931;BME280;21134;49.646;8.560;2023-02-18T03:12:35;101223.00;;;11.74;97.78
34931;BME280;21134;49.646;8.560;2023-02-18T03:15:12;101234.91;;;11.62;98.46
34931;BME280;21134;49.646;8.560;2023-02-18T03:17:45;101233.13;;;11.54;99.69
34931;BME280;21134;49.646;8.560;2023-02-18T03:22:47;101227.31;;;11.79;97.97
34931;BME280;21134;49.646;8.560;2023-02-18T03:25:16;101225.59;;;11.80;97.29
34931;BME280;21134;49.646;8.560;2023-02-18T03:27:48;101218.75;;;11.80;97.29
34931;BME280;21134;49.646;8.560;2023-02-18T03:30:23;101219.63;;;11.78;96.65
34931;BME280;21134;49.646;8.560;2023-02-18T03:32:54;101217.03;;;11.73;96.63
34931;BME280;21134;49.646;8.560;2023-02-18T03:35:23;101221.25;;;11.65;97.36
34931;BME280;21134;49.646;8.560;2023-02-18T03:37:56;101221.31;;;11.74;97.32
34931;BME280;21134;49.646;8.560;2023-02-18T03:40:26;101224.69;;;11.70;96.95
34931;BME280;21134;49.646;8.560;2023-02-18T03:42:53;101229.81;;;11.70;96.88
34931;BME280;21134;49.646;8.560;2023-02-18T03:45:19;101234.94;;;11.67;97.01
34931;BME280;21134;49.646;8.560;2023-02-18T03:47:46;101234.03;;;11.59;96.81
34931;BME280;21134;49.646;8.560;2023-02-18T03:50:13;101234.91;;;11.64;96.64
34931;BME280;21134;49.646;8.560;2023-02-18T03:52:39;101225.53;;;11.66;95.50
34931;BME280;21134;49.646;8.560;2023-02-18T03:55:08;101230.72;;;11.75;95.13
34931;BME280;21134;49.646;8.560;2023-02-18T03:57:34;101224.63;;;11.56;95.76
34931;BME280;21134;49.646;8.560;2023-02-18T04:00:01;101231.47;;;11.60;96.35
34931;BME280;21134;49.646;8.560;2023-02-18T04:02:29;101234.03;;;11.60;95.26
34931;BME280;21134;49.646;8.560;2023-02-18T04:04:56;101225.53;;;11.66;95.52
34931;BME280;21134;49.646;8.560;2023-02-18T04:07:22;101238.38;;;11.72;94.41
34931;BME280;21134;49.646;8.560;2023-02-18T04:09:49;101236.78;;;11.85;93.75
34931;BME280;21134;49.646;8.560;2023-02-18T04:12:17;101230.81;;;11.84;93.34
34931;BME280;21134;49.646;8.560;2023-02-18T04:14:44;101233.22;;;11.71;93.79
34931;BME280;21134;49.646;8.560;2023-02-18T04:17:10;101223.91;;;11.79;94.09
34931;BME280;21134;49.646;8.560;2023-02-18T04:19:36;101219.72;;;11.89;93.05
34931;BME280;21134;49.646;8.560;2023-02-18T04:22:03;101225.69;;;11.89;91.64
34931;BME280;21134;49.646;8.560;2023-02-18T04:24:29;101218.00;;;11.88;91.35
34931;BME280;21134;49.646;8.560;2023-02-18T04:26:56;101223.88;;;11.80;92.02
34931;BME280;21134;49.646;8.560;2023-02-18T04:29:24;101222.19;;;11.78;91.36
34931;BME280;21134;49.646;8.560;2023-02-18T04:31:50;101217.09;;;11.81;91.42
34931;BME280;21134;49.646;8.560;2023-02-18T04:34:17;101209.41;;;11.81;90.32
34931;BME280;21134;49.646;8.560;2023-02-18T04:36:43;101214.53;;;11.81;90.99
34931;BME280;21134;49.646;8.560;2023-02-18T04:39:10;101214.50;;;11.78;89.98
34931;BME280;21134;49.646;8.560;2023-02-18T04:41:36;101209.38;;;11.79;89.83
34931;BME280;21134;49.646;8.560;2023-02-18T04:44:03;101221.28;;;11.70;89.88
34931;BME280;21134;49.646;8.560;2023-02-18T04:46:31;101222.94;;;11.58;91.40
34931;BME280;21134;49.646;8.560;2023-02-18T04:48:57;101228.81;;;11.48;90.83
34931;BME280;21134;49.646;8.560;2023-02-18T04:51:24;101209.22;;;11.53;90.41
34931;BME280;21134;49.646;8.560;2023-02-18T04:53:50;101206.72;;;11.62;89.79
34931;BME280;21134;49.646;8.560;2023-02-18T04:56:17;101211.78;;;11.55;90.48
34931;BME280;21134;49.646;8.560;2023-02-18T04:58:44;101211.78;;;11.53;89.77
34931;BME280;21134;49.646;8.560;2023-02-18T05:01:10;101214.34;;;11.55;88.53
34931;BME280;21134;49.646;8.560;2023-02-18T05:03:39;101213.50;;;11.53;89.14
34931;BME280;21134;49.646;8.560;2023-02-18T05:06:05;101226.28;;;11.51;89.22
34931;BME280;21134;49.646;8.560;2023-02-18T05:08:32;101217.75;;;11.52;88.24
34931;BME280;21134;49.646;8.560;2023-02-18T05:10:58;101218.66;;;11.60;88.06
34931;BME280;21134;49.646;8.560;2023-02-18T05:13:25;101223.81;;;11.67;86.91
34931;BME280;21134;49.646;8.560;2023-02-18T05:15:51;101219.50;;;11.59;87.76
34931;BME280;21134;49.646;8.560;2023-02-18T05:18:18;101216.91;;;11.58;87.50
34931;BME280;21134;49.646;8.560;2023-02-18T05:20:46;101218.63;;;11.53;87.97
34931;BME280;21134;49.646;8.560;2023-02-18T05:23:13;101220.34;;;11.55;87.06
34931;BME280;21134;49.646;8.560;2023-02-18T05:25:39;101218.63;;;11.57;86.56
34931;BME280;21134;49.646;8.560;2023-02-18T05:28:06;101213.53;;;11.63;85.46
34931;BME280;21134;49.646;8.560;2023-02-18T05:30:32;101215.25;;;11.58;85.86
34931;BME280;21134;49.646;8.560;2023-02-18T05:32:59;101214.34;;;11.58;85.79
34931;BME280;21134;49.646;8.560;2023-02-18T05:35:25;101211.78;;;11.56;85.53
34931;BME280;21134;49.646;8.560;2023-02-18T05:37:53;101207.47;;;11.46;86.30
34931;BME280;21134;49.646;8.560;2023-02-18T05:40:20;101211.88;;;11.66;84.46
34931;BME280;21134;49.646;8.560;2023-02-18T05:42:46;101211.03;;;11.73;83.86
34931;BME280;21134;49.646;8.560;2023-02-18T05:45:13;101212.69;;;11.61;84.43
34931;BME280;21134;49.646;8.560;2023-02-18T05:47:39;101222.09;;;11.64;83.95
34931;BME280;21134;49.646;8.560;2023-02-18T05:50:07;101210.94;;;11.57;84.17
34931;BME280;21134;49.646;8.560;2023-02-18T05:52:33;101216.91;;;11.55;83.61
34931;BME280;21134;49.646;8.560;2023-02-18T05:55:01;101218.63;;;11.57;84.41
34931;BME280;21134;49.646;8.560;2023-02-18T05:57:28;101211.78;;;11.55;83.96
34931;BME280;21134;49.646;8.560;2023-02-18T05:59:54;101199.72;;;11.41;85.36
34931;BME280;21134;49.646;8.560;2023-02-18T06:02:21;101203.13;;;11.39;85.44
34931;BME280;21134;49.646;8.560;2023-02-18T06:04:47;101220.28;;;11.51;84.16
34931;BME280;21134;49.646;8.560;2023-02-18T06:07:14;101211.75;;;11.52;83.14
34931;BME280;21134;49.646;8.560;2023-02-18T06:09:40;101211.75;;;11.50;84.82
34931;BME280;21134;49.646;8.560;2023-02-18T06:12:08;101216.03;;;11.50;83.76
34931;BME280;21134;49.646;8.560;2023-02-18T06:14:35;101221.09;;;11.45;83.83
34931;BME280;21134;49.646;8.560;2023-02-18T06:17:01;101215.13;;;11.43;83.82
34931;BME280;21134;49.646;8.560;2023-02-18T06:19:27;101218.66;;;11.63;82.16
34931;BME280;21134;49.646;8.560;2023-02-18T06:21:54;101215.25;;;11.61;82.30
34931;BME280;21134;49.646;8.560;2023-02-18T06:24:21;101201.56;;;11.61;81.89
34931;BME280;21134;49.646;8.560;2023-02-18T06:26:47;101190.50;;;11.65;81.07
34931;BME280;21134;49.646;8.560;2023-02-18T06:29:15;101201.53;;;11.56;81.73
34931;BME280;21134;49.646;8.560;2023-02-18T06:31:42;101191.25;;;11.52;82.80
34931;BME280;21134;49.646;8.560;2023-02-18T06:34:08;101196.31;;;11.41;84.17
34931;BME280;21134;49.646;8.560;2023-02-18T06:36:34;101192.16;;;11.55;81.87
34931;BME280;21134;49.646;8.560;2023-02-18T06:39:02;101182.75;;;11.56;81.94
34931;BME280;21134;49.646;8.560;2023-02-18T06:41:29;101175.03;;;11.51;82.39
34931;BME280;21134;49.646;8.560;2023-02-18T06:43:55;101184.47;;;11.58;82.86
34931;BME280;21134;49.646;8.560;2023-02-18T06:46:23;101184.50;;;11.66;82.44
34931;BME280;21134;49.646;8.560;2023-02-18T06:48:50;101175.97;;;11.67;81.02
34931;BME280;21134;49.646;8.560;2023-02-18T06:51:17;101183.69;;;11.73;81.00
34931;BME280;21134;49.646;8.560;2023-02-18T06:53:44;101188.81;;;11.73;81.52
34931;BME280;21134;49.646;8.560;2023-02-18T06:56:11;101194.66;;;11.48;83.21
34931;BME280;21134;49.646;8.560;2023-02-18T06:58:37;101189.63;;;11.58;82.18
34931;BME280;21134;49.646;8.560;2023-02-18T07:01:04;101181.06;;;11.59;82.16
34931;BME280;21134;49.646;8.560;2023-02-18T07:03:32;101184.56;;;11.75;81.61
34931;BME280;21134;49.646;8.560;2023-02-18T07:05:58;101182.78;;;11.63;82.74
34931;BME280;21134;49.646;8.560;2023-02-18T07:08:25;101185.34;;;11.63;82.35
34931;BME280;21134;49.646;8.560;2023-02-18T07:10:51;101169.09;;;11.58;82.62
34931;BME280;21134;49.646;8.560;2023-02-18T07:13:18;101175.91;;;11.53;83.48
34931;BME280;21134;49.646;8.560;2023-02-18T07:15:44;101163.00;;;11.41;84.07
34931;BME280;21134;49.646;8.560;2023-02-18T07:18:11;101171.59;;;11.46;84.30
34931;BME280;21134;49.646;8.560;2023-02-18T07:20:38;101168.16;;;11.43;84.33
34931;BME280;21134;49.646;8.560;2023-02-18T07:23:05;101159.59;;;11.40;84.77
34931;BME280;21134;49.646;8.560;2023-02-18T07:25:31;101172.41;;;11.42;85.35
34931;BME280;21134;49.646;8.560;2023-02-18T07:27:58;101170.78;;;11.53;83.83
34931;BME280;21134;49.646;8.560;2023-02-18T07:30:24;101169.09;;;11.55;82.72
34931;BME280;21134;49.646;8.560;2023-02-18T07:32:51;101152.00;;;11.56;83.05
34931;BME280;21134;49.646;8.560;2023-02-18T07:35:17;101134.94;;;11.59;82.45
34931;BME280;21134;49.646;8.560;2023-02-18T07:37:47;101136.69;;;11.70;82.03
34931;BME280;21134;49.646;8.560;2023-02-18T07:40:17;101132.38;;;11.62;83.10
34931;BME280;21134;49.646;8.560;2023-02-18T07:42:43;101134.94;;;11.67;81.39
34931;BME280;21134;49.646;8.560;2023-02-18T07:45:11;101138.41;;;11.72;81.23
34931;BME280;21134;49.646;8.560;2023-02-18T07:47:38;101146.97;;;11.71;81.72
34931;BME280;21134;49.646;8.560;2023-02-18T07:50:07;101158.06;;;11.73;81.78
34931;BME280;21134;49.646;8.560;2023-02-18T07:52:33;101146.25;;;11.98;80.24
34931;BME280;21134;49.646;8.560;2023-02-18T07:55:01;101139.38;;;11.96;80.07
34931;BME280;21134;49.646;8.560;2023-02-18T07:57:29;101150.50;;;11.95;80.91
34931;BME280;21134;49.646;8.560;2023-02-18T07:59:55;101149.69;;;12.05;79.76
34931;BME280;21134;49.646;8.560;2023-02-18T08:02:23;101141.16;;;12.18;78.32
34931;BME280;21134;49.646;8.560;2023-02-18T08:04:49;101151.41;;;12.07;78.42
34931;BME280;21134;49.646;8.560;2023-02-18T08:07:17;101148.81;;;12.06;78.94
34931;BME280;21134;49.646;8.560;2023-02-18T08:09:44;101140.31;;;12.13;79.52
34931;BME280;21134;49.646;8.560;2023-02-18T08:12:12;101133.47;;;12.17;77.75
34931;BME280;21134;49.646;8.560;2023-02-18T08:14:38;101148.88;;;12.24;77.58
34931;BME280;21134;49.646;8.560;2023-02-18T08:17:05;101125.81;;;12.30;77.90
34931;BME280;21134;49.646;8.560;2023-02-18T08:19:32;101125.81;;;12.30;77.01
34931;BME280;21134;49.646;8.560;2023-02-18T08:22:00;101139.50;;;12.43;76.42
34931;BME280;21134;49.646;8.560;2023-02-18T08:24:27;101131.84;;;12.52;75.11
34931;BME280;21134;49.646;8.560;2023-02-18T08:26:53;101135.28;;;12.64;74.74
34931;BME280;21134;49.646;8.560;2023-02-18T08:29:21;101130.97;;;12.63;75.56
34931;BME280;21134;49.646;8.560;2023-02-18T08:31:48;101125.00;;;12.64;76.06
34931;BME280;21134;49.646;8.560;2023-02-18T08:34:16;101144.66;;;12.63;75.57
34931;BME280;21134;49.646;8.560;2023-02-18T08:36:42;101124.16;;;12.59;75.82
34931;BME280;21134;49.646;8.560;2023-02-18T08:39:09;101142.94;;;12.50;77.31
34931;BME280;21134;49.646;8.560;2023-02-18T08:41:35;101136.94;;;12.40;77.78
34931;BME280;21134;49.646;8.560;2023-02-18T08:44:02;101132.66;;;12.41;77.22
34931;BME280;21134;49.646;8.560;2023-02-18T08:46:29;101121.56;;;12.45;78.06
34931;BME280;21134;49.646;8.560;2023-02-18T08:48:56;101123.28;;;12.52;77.60
34931;BME280;21134;49.646;8.560;2023-02-18T08:51:22;101124.16;;;12.48;77.13
34931;BME280;21134;49.646;8.560;2023-02-18T08:53:50;101119.00;;;12.49;77.81
34931;BME280;21134;49.646;8.560;2023-02-18T08:56:16;101124.13;;;12.69;75.44
34931;BME280;21134;49.646;8.560;2023-02-18T08:58:43;101134.41;;;12.66;76.39
34931;BME280;21134;49.646;8.560;2023-02-18T09:01:12;101137.84;;;12.76;75.57
34931;BME280;21134;49.646;8.560;2023-02-18T09:03:40;101149.84;;;12.71;75.96
34931;BME280;21134;49.646;8.560;2023-02-18T09:06:07;101140.41;;;12.74;75.62
34931;BME280;21134;49.646;8.560;2023-02-18T09:08:34;101146.44;;;12.79;75.28
34931;BME280;21134;49.646;8.560;2023-02-18T09:11:03;101137.84;;;12.77;75.38
34931;BME280;21134;49.646;8.560;2023-02-18T09:13:30;101144.69;;;12.82;74.94
34931;BME280;21134;49.646;8.560;2023-02-18T09:15:58;101148.97;;;12.81;75.96
34931;BME280;21134;49.646;8.560;2023-02-18T09:18:25;101147.25;;;12.85;75.59
34931;BME280;21134;49.646;8.560;2023-02-18T09:20:56;101142.13;;;12.88;75.66
34931;BME280;21134;49.646;8.560;2023-02-18T09:23:24;101152.41;;;12.78;75.41
34931;BME280;21134;49.646;8.560;2023-02-18T09:25:50;101143.84;;;12.81;74.66
34931;BME280;21134;49.646;8.560;2023-02-18T09:28:17;101135.28;;;12.74;75.46
34931;BME280;21134;49.646;8.560;2023-02-18T09:30:43;101137.84;;;12.85;74.82
34931;BME280;21134;49.646;8.560;2023-02-18T09:33:10;101143.00;;;12.84;75.42
34931;BME280;21134;49.646;8.560;2023-02-18T09:35:38;101154.97;;;12.80;74.71
34931;BME280;21134;49.646;8.560;2023-02-18T09:38:07;101153.28;;;13.02;73.58
34931;BME280;21134;49.646;8.560;2023-02-18T09:40:35;101154.97;;;13.03;73.63
34931;BME280;21134;49.646;8.560;2023-02-18T09:43:02;101149.84;;;12.97;74.51
34931;BME280;21134;49.646;8.560;2023-02-18T09:45:29;101149.84;;;12.97;74.13
34931;BME280;21134;49.646;8.560;2023-02-18T09:47:56;101156.69;;;12.90;74.28
34931;BME280;21134;49.646;8.560;2023-02-18T09:50:26;101142.13;;;13.03;73.72
34931;BME280;21134;49.646;8.560;2023-02-18T09:52:54;101142.97;;;13.03;73.98
34931;BME280;21134;49.646;8.560;2023-02-18T09:55:27;101156.69;;;13.01;74.33
34931;BME280;21134;49.646;8.560;2023-02-18T09:57:56;101154.97;;;13.08;73.72
34931;BME280;21134;49.646;8.560;2023-02-18T10:00:29;101158.41;;;13.10;73.84
34931;BME280;21134;49.646;8.560;2023-02-18T10:02:59;101154.97;;;13.14;72.76
34931;BME280;21134;49.646;8.560;2023-02-18T10:05:28;101151.56;;;13.09;72.72
34931;BME280;21134;49.646;8.560;2023-02-18T10:07:59;101138.69;;;13.19;71.32
34931;BME280;21134;49.646;8.560;2023-02-18T10:10:35;101156.69;;;13.25;72.17
34931;BME280;21134;49.646;8.560;2023-02-18T10:13:02;101141.22;;;13.24;72.04
34931;BME280;21134;49.646;8.560;2023-02-18T10:15:30;101150.69;;;13.37;71.13
34931;BME280;21134;49.646;8.560;2023-02-18T10:17:57;101148.97;;;13.38;70.76
34931;BME280;21134;49.646;8.560;2023-02-18T10:20:27;101150.69;;;13.39;70.55
34931;BME280;21134;49.646;8.560;2023-02-18T10:22:57;101154.09;;;13.30;71.03
34931;BME280;21134;49.646;8.560;2023-02-18T10:25:25;101158.41;;;13.33;71.01
34931;BME280;21134;49.646;8.560;2023-02-18T10:27:53;101169.53;;;13.22;70.40
34931;BME280;21134;49.646;8.560;2023-02-18T10:30:24;101172.13;;;13.25;70.61
34931;BME280;21134;49.646;8.560;2023-02-18T10:32:55;101184.06;;;13.14;71.49
34931;BME280;21134;49.646;8.560;2023-02-18T10:35:30;101179.81;;;13.09;71.67
34931;BME280;21134;49.646;8.560;2023-02-18T10:38:05;101182.38;;;13.09;70.57
34931;BME280;21134;49.646;8.560;2023-02-18T10:40:41;101181.50;;;13.00;71.15
34931;BME280;21134;49.646;8.560;2023-02-18T10:43:20;101184.09;;;13.00;70.95
34931;BME280;21134;49.646;8.560;2023-02-18T10:45:54;101178.06;;;12.95;71.16
34931;BME280;21134;49.646;8.560;2023-02-18T10:48:37;101184.94;;;13.01;71.64
34931;BME280;21134;49.646;8.560;2023-02-18T10:51:15;101186.66;;;12.94;70.81
34931;BME280;21134;49.646;8.560;2023-02-18T10:53:45;101169.50;;;12.92;70.88
34931;BME280;21134;49.646;8.560;2023-02-18T10:56:33;101164.38;;;12.95;70.94
34931;BME280;21134;49.646;8.560;2023-02-18T10:59:08;101168.66;;;12.91;70.21
34931;BME280;21134;49.646;8.560;2023-02-18T11:01:35;101160.09;;;12.95;69.81
34931;BME280;21134;49.646;8.560;2023-02-18T11:04:11;101172.94;;;12.85;70.44
34931;BME280;21134;49.646;8.560;2023-02-18T11:06:41;101166.97;;;12.90;69.45
34931;BME280;21134;49.646;8.560;2023-02-18T11:09:25;101165.25;;;12.89;69.61
34931;BME280;21134;49.646;8.560;2023-02-18T11:11:58;101158.38;;;12.94;69.23
34931;BME280;21134;49.646;8.560;2023-02-18T11:14:37;101164.38;;;12.86;69.57
34931;BME280;21134;49.646;8.560;2023-02-18T11:17:11;101170.41;;;12.89;69.42
34931;BME280;21134;49.646;8.560;2023-02-18T11:19:40;101171.25;;;12.97;69.01
34931;BME280;21134;49.646;8.560;2023-02-18T11:22:13;101166.13;;;12.96;69.93
34931;BME280;21134;49.646;8.560;2023-02-18T11:24:41;101163.53;;;13.02;69.01
34931;BME280;21134;49.646;8.560;2023-02-18T11:27:17;101151.53;;;13.10;68.60
34931;BME280;21134;49.646;8.560;2023-02-18T11:29:50;101149.84;;;13.03;68.46
34931;BME280;21134;49.646;8.560;2023-02-18T11:32:17;101136.13;;;13.01;68.90
34931;BME280;21134;49.646;8.560;2023-02-18T11:34:44;101136.13;;;12.95;69.52
34931;BME280;21134;49.646;8.560;2023-02-18T11:37:16;101125.88;;;12.93;70.39
34931;BME280;21134;49.646;8.560;2023-02-18T11:39:45;101115.56;;;13.10;67.96
34931;BME280;21134;49.646;8.560;2023-02-18T11:42:14;101107.84;;;13.27;68.26
34931;BME280;21134;49.646;8.560;2023-02-18T11:44:49;101114.66;;;13.48;66.10
34931;BME280;21134;49.646;8.560;2023-02-18T11:47:23;101103.50;;;13.49;66.26
34931;BME280;21134;49.646;8.560;2023-02-18T11:50:14;101098.31;;;13.64;65.42
34931;BME280;21134;49.646;8.560;2023-02-18T11:52:43;101097.41;;;13.75;65.05
34931;BME280;21134;49.646;8.560;2023-02-18T11:55:15;101098.25;;;13.80;65.52
34931;BME280;21134;49.646;8.560;2023-02-18T11:57:45;101089.66;;;13.87;64.96
34931;BME280;21134;49.646;8.560;2023-02-18T12:00:20;101093.84;;;14.06;64.35
34931;BME280;21134;49.646;8.560;2023-02-18T12:02:49;101087.09;;;13.81;63.09
34931;BME280;21134;49.646;8.560;2023-02-18T12:05:20;101075.94;;;13.83;63.09
34931;BME280;21134;49.646;8.560;2023-02-18T12:07:49;101076.84;;;13.76;62.95
34931;BME280;21134;49.646;8.560;2023-02-18T12:10:23;101082.00;;;13.76;63.39
34931;BME280;21134;49.646;8.560;2023-02-18T12:12:55;101076.91;;;13.61;64.09
34931;BME280;21134;49.646;8.560;2023-02-18T12:15:31;101083.78;;;13.56;64.09
34931;BME280;21134;49.646;8.560;2023-02-18T12:18:09;101082.94;;;13.46;64.37
34931;BME280;21134;49.646;8.560;2023-02-18T12:23:42;101087.28;;;13.35;64.88
34931;BME280;21134;49.646;8.560;2023-02-18T12:26:20;101076.13;;;13.36;63.80
34931;BME280;21134;49.646;8.560;2023-02-18T12:29:08;101081.25;;;13.45;63.21
34931;BME280;21134;49.646;8.560;2023-02-18T12:32:03;101075.28;;;13.38;63.70
34931;BME280;21134;49.646;8.560;2023-02-18T12:34:40;101065.00;;;13.38;63.18
34931;BME280;21134;49.646;8.560;2023-02-18T12:37:30;101053.00;;;13.23;64.69
34931;BME280;21134;49.646;8.560;2023-02-18T12:40:19;101051.31;;;13.32;64.43
34931;BME280;21134;49.646;8.560;2023-02-18T12:42:54;101059.84;;;13.41;63.39
34931;BME280;21134;49.646;8.560;2023-02-18T12:45:38;101041.00;;;13.24;64.28
34931;BME280;21134;49.646;8.560;2023-02-18T12:48:33;101041.91;;;13.11;65.46
34931;BME280;21134;49.646;8.560;2023-02-18T12:51:13;101041.06;;;13.09;66.76
34931;BME280;21134;49.646;8.560;2023-02-18T12:53:51;101035.91;;;13.16;65.37
34931;BME280;21134;49.646;8.560;2023-02-18T12:56:36;101042.75;;;13.17;65.80
34931;BME280;21134;49.646;8.560;2023-02-18T12:59:13;101021.34;;;13.18;66.02
34931;BME280;21134;49.646;8.560;2023-02-18T13:01:50;101035.03;;;13.14;66.02
34931;BME280;21134;49.646;8.560;2023-02-18T13:04:43;101011.13;;;13.00;66.40
34931;BME280;21134;49.646;8.560;2023-02-18T13:07:28;101009.34;;;13.20;65.10
34931;BME280;21134;49.646;8.560;2023-02-18T13:10:27;101020.47;;;13.29;64.72
34931;BME280;21134;49.646;8.560;2023-02-18T13:13:06;101020.44;;;13.24;65.03
34931;BME280;21134;49.646;8.560;2023-02-18T13:15:38;101016.19;;;13.17;65.48